ASL01D LGAV-LWSK
Flight info
| Callsign | ASL01D |
|---|---|
| Flight time | 0h 53m |
| Altitude | 38000 |
| Route | KRO UT162 NEVRA UT514 TSL UN130 TALAS DCT PEP |
| Aircraft | A320/M-SDE3FGHIRWY/LB1 |
Departure
| Time | 2026-04-20 12:22 |
|---|---|
| Airport | Athens Eleftherios Venizelos International Airport (LGAV) |
Arrival
| Time | 2026-04-20 13:15 |
|---|---|
| Airport | Skopje International Airport (LWSK) |
| Time | Latitude | Longitude | Altitude | Speed | Heading |
|---|---|---|---|---|---|
| 2026-04-20 12:09 | 37.93561 | 23.94812 | 284 ft | 0 kts | 318° |
| 2026-04-20 12:12 | 37.93543 | 23.94832 | 291 ft | 4 kts | 322° |
| 2026-04-20 12:12 | 37.93521 | 23.94851 | 287 ft | 4 kts | 332° |
| 2026-04-20 12:12 | 37.93497 | 23.94862 | 287 ft | 4 kts | 4° |
| 2026-04-20 12:12 | 37.93484 | 23.94858 | 285 ft | 0 kts | 37° |
| 2026-04-20 12:15 | 37.93484 | 23.94859 | 285 ft | 1 kts | 37° |
| 2026-04-20 12:15 | 37.93497 | 23.94871 | 286 ft | 4 kts | 37° |
| 2026-04-20 12:15 | 37.93528 | 23.94901 | 284 ft | 7 kts | 37° |
| 2026-04-20 12:16 | 37.93576 | 23.94947 | 283 ft | 10 kts | 37° |
| 2026-04-20 12:16 | 37.93634 | 23.95002 | 283 ft | 12 kts | 37° |
| 2026-04-20 12:16 | 37.93696 | 23.95063 | 282 ft | 10 kts | 44° |
| 2026-04-20 12:16 | 37.93691 | 23.95155 | 285 ft | 13 kts | 125° |
| 2026-04-20 12:17 | 37.93650 | 23.95240 | 281 ft | 12 kts | 97° |
| 2026-04-20 12:17 | 37.93704 | 23.95331 | 284 ft | 15 kts | 38° |
| 2026-04-20 12:17 | 37.93793 | 23.95420 | 279 ft | 18 kts | 38° |
| 2026-04-20 12:17 | 37.93899 | 23.95517 | 280 ft | 20 kts | 35° |
| 2026-04-20 12:18 | 37.94018 | 23.95628 | 282 ft | 23 kts | 37° |
| 2026-04-20 12:18 | 37.94150 | 23.95757 | 276 ft | 25 kts | 38° |
| 2026-04-20 12:18 | 37.94298 | 23.95898 | 275 ft | 28 kts | 36° |
| 2026-04-20 12:18 | 37.94456 | 23.96048 | 275 ft | 26 kts | 37° |
| 2026-04-20 12:19 | 37.94611 | 23.96197 | 271 ft | 30 kts | 37° |
| 2026-04-20 12:19 | 37.94779 | 23.96357 | 269 ft | 31 kts | 36° |
| 2026-04-20 12:19 | 37.94962 | 23.96528 | 267 ft | 34 kts | 37° |
| 2026-04-20 12:19 | 37.95147 | 23.96705 | 265 ft | 29 kts | 37° |
| 2026-04-20 12:20 | 37.95274 | 23.96824 | 264 ft | 15 kts | 38° |
| 2026-04-20 12:20 | 37.95268 | 23.96951 | 263 ft | 17 kts | 126° |
| 2026-04-20 12:20 | 37.95186 | 23.97011 | 265 ft | 14 kts | 199° |
| 2026-04-20 12:20 | 37.95157 | 23.96986 | 266 ft | 0 kts | 216° |
| 2026-04-20 12:21 | 37.95008 | 23.96846 | 268 ft | 70 kts | 217° |
| 2026-04-20 12:21 | 37.94394 | 23.96266 | 271 ft | 144 kts | 217° |
| 2026-04-20 12:21 | 37.93511 | 23.95464 | 903 ft | 160 kts | 214° |
| 2026-04-20 12:22 | 37.92526 | 23.94652 | 1636 ft | 177 kts | 211° |
| 2026-04-20 12:22 | 37.91421 | 23.93872 | 2143 ft | 193 kts | 210° |
| 2026-04-20 12:22 | 37.90174 | 23.93027 | 2468 ft | 212 kts | 210° |
| 2026-04-20 12:22 | 37.88807 | 23.92106 | 2885 ft | 232 kts | 210° |
| 2026-04-20 12:23 | 37.87361 | 23.91133 | 3581 ft | 238 kts | 211° |
| 2026-04-20 12:23 | 37.85882 | 23.90133 | 4325 ft | 245 kts | 211° |
| 2026-04-20 12:23 | 37.84361 | 23.89101 | 5186 ft | 250 kts | 211° |
| 2026-04-20 12:23 | 37.82817 | 23.88050 | 6064 ft | 254 kts | 211° |
| 2026-04-20 12:24 | 37.81252 | 23.86985 | 6961 ft | 257 kts | 211° |
| 2026-04-20 12:24 | 37.79663 | 23.85900 | 7819 ft | 260 kts | 211° |
| 2026-04-20 12:24 | 37.78025 | 23.84892 | 8666 ft | 266 kts | 199° |
| 2026-04-20 12:24 | 37.76159 | 23.84748 | 9470 ft | 277 kts | 170° |
| 2026-04-20 12:25 | 37.74384 | 23.85792 | 10054 ft | 294 kts | 140° |
| 2026-04-20 12:25 | 37.73110 | 23.87928 | 10314 ft | 318 kts | 117° |
| 2026-04-20 12:25 | 37.72435 | 23.90670 | 10547 ft | 340 kts | 95° |
| 2026-04-20 12:25 | 37.72683 | 23.93691 | 10881 ft | 353 kts | 69° |
| 2026-04-20 12:26 | 37.73920 | 23.96360 | 11458 ft | 355 kts | 46° |
| 2026-04-20 12:26 | 37.75553 | 23.98658 | 12127 ft | 358 kts | 44° |
| 2026-04-20 12:26 | 37.77246 | 24.00993 | 12826 ft | 362 kts | 44° |
| 2026-04-20 12:26 | 37.78961 | 24.03344 | 13536 ft | 365 kts | 44° |
| 2026-04-20 12:27 | 37.80693 | 24.05718 | 14191 ft | 369 kts | 44° |
| 2026-04-20 12:27 | 37.82440 | 24.08119 | 14814 ft | 372 kts | 44° |
| 2026-04-20 12:27 | 37.84196 | 24.10543 | 15427 ft | 375 kts | 44° |
| 2026-04-20 12:27 | 37.85960 | 24.12983 | 16017 ft | 378 kts | 44° |
| 2026-04-20 12:28 | 37.87743 | 24.15448 | 16594 ft | 381 kts | 44° |
| 2026-04-20 12:28 | 37.89551 | 24.17948 | 16946 ft | 384 kts | 44° |
| 2026-04-20 12:28 | 37.91352 | 24.20444 | 17008 ft | 384 kts | 44° |
| 2026-04-20 12:28 | 37.93128 | 24.22914 | 17014 ft | 384 kts | 44° |
| 2026-04-20 12:29 | 37.94939 | 24.25432 | 17294 ft | 387 kts | 43° |
| 2026-04-20 12:29 | 37.96996 | 24.27594 | 17918 ft | 383 kts | 27° |
| 2026-04-20 12:29 | 37.99436 | 24.28878 | 18480 ft | 378 kts | 9° |
| 2026-04-20 12:29 | 38.02035 | 24.29162 | 19003 ft | 374 kts | 352° |
| 2026-04-20 12:30 | 38.04559 | 24.28460 | 19545 ft | 371 kts | 336° |
| 2026-04-20 12:30 | 38.06839 | 24.26943 | 20081 ft | 372 kts | 328° |
| 2026-04-20 12:30 | 38.09073 | 24.25274 | 20635 ft | 374 kts | 327° |
| 2026-04-20 12:30 | 38.11330 | 24.23584 | 21160 ft | 376 kts | 328° |
| 2026-04-20 12:31 | 38.13590 | 24.21893 | 21664 ft | 379 kts | 327° |
| 2026-04-20 12:31 | 38.15873 | 24.20188 | 22154 ft | 382 kts | 327° |
| 2026-04-20 12:31 | 38.18170 | 24.18474 | 22636 ft | 384 kts | 327° |
| 2026-04-20 12:31 | 38.20485 | 24.16746 | 23124 ft | 387 kts | 327° |
| 2026-04-20 12:32 | 38.22793 | 24.15024 | 23592 ft | 390 kts | 327° |
| 2026-04-20 12:32 | 38.25138 | 24.13274 | 24001 ft | 392 kts | 327° |
| 2026-04-20 12:32 | 38.27501 | 24.11508 | 24420 ft | 394 kts | 327° |
| 2026-04-20 12:32 | 38.29872 | 24.09733 | 24836 ft | 396 kts | 327° |
| 2026-04-20 12:33 | 38.32257 | 24.07949 | 25230 ft | 398 kts | 327° |
| 2026-04-20 12:33 | 38.34652 | 24.06157 | 25613 ft | 400 kts | 327° |
| 2026-04-20 12:33 | 38.37057 | 24.04353 | 26014 ft | 402 kts | 327° |
| 2026-04-20 12:33 | 38.39477 | 24.02533 | 26394 ft | 405 kts | 327° |
| 2026-04-20 12:34 | 38.41910 | 24.00701 | 26788 ft | 407 kts | 327° |
| 2026-04-20 12:34 | 38.44352 | 23.98860 | 27179 ft | 409 kts | 327° |
| 2026-04-20 12:34 | 38.46804 | 23.97011 | 27569 ft | 411 kts | 327° |
| 2026-04-20 12:34 | 38.49272 | 23.95153 | 27953 ft | 413 kts | 327° |
| 2026-04-20 12:35 | 38.51754 | 23.93285 | 28345 ft | 415 kts | 327° |
| 2026-04-20 12:35 | 38.54250 | 23.91406 | 28728 ft | 417 kts | 327° |
| 2026-04-20 12:35 | 38.56753 | 23.89517 | 29099 ft | 419 kts | 327° |
| 2026-04-20 12:35 | 38.59270 | 23.87616 | 29520 ft | 420 kts | 327° |
| 2026-04-20 12:36 | 38.61777 | 23.85722 | 30083 ft | 418 kts | 327° |
| 2026-04-20 12:36 | 38.64273 | 23.83834 | 30542 ft | 416 kts | 327° |
| 2026-04-20 12:36 | 38.66765 | 23.81945 | 31002 ft | 415 kts | 327° |
| 2026-04-20 12:36 | 38.69242 | 23.80062 | 31460 ft | 414 kts | 327° |
| 2026-04-20 12:37 | 38.71715 | 23.78183 | 31918 ft | 413 kts | 327° |
| 2026-04-20 12:37 | 38.74187 | 23.76307 | 32374 ft | 412 kts | 327° |
| 2026-04-20 12:37 | 38.76650 | 23.74438 | 32829 ft | 411 kts | 327° |
| 2026-04-20 12:37 | 38.79068 | 23.72600 | 33322 ft | 408 kts | 327° |
| 2026-04-20 12:38 | 38.81507 | 23.70741 | 33814 ft | 407 kts | 327° |
| 2026-04-20 12:38 | 38.83935 | 23.68888 | 34234 ft | 406 kts | 327° |
| 2026-04-20 12:38 | 38.86363 | 23.67035 | 34582 ft | 406 kts | 327° |
| 2026-04-20 12:38 | 38.88792 | 23.65182 | 34910 ft | 406 kts | 327° |
| 2026-04-20 12:39 | 38.93663 | 23.61463 | 35501 ft | 408 kts | 327° |
| 2026-04-20 12:39 | 38.96103 | 23.59597 | 35796 ft | 408 kts | 327° |
| 2026-04-20 12:39 | 38.98547 | 23.57729 | 36090 ft | 409 kts | 327° |
| 2026-04-20 12:40 | 39.00991 | 23.55858 | 36376 ft | 409 kts | 327° |
| 2026-04-20 12:40 | 39.03438 | 23.53979 | 36662 ft | 410 kts | 327° |
| 2026-04-20 12:40 | 39.05886 | 23.52096 | 36940 ft | 410 kts | 327° |
| 2026-04-20 12:40 | 39.08340 | 23.50204 | 37211 ft | 410 kts | 327° |
| 2026-04-20 12:41 | 39.10791 | 23.48316 | 37476 ft | 411 kts | 327° |
| 2026-04-20 12:41 | 39.13215 | 23.46452 | 37765 ft | 411 kts | 327° |
| 2026-04-20 12:41 | 39.15674 | 23.44565 | 37959 ft | 412 kts | 327° |
| 2026-04-20 12:42 | 39.20633 | 23.40745 | 37991 ft | 416 kts | 327° |
| 2026-04-20 12:42 | 39.25606 | 23.36900 | 37990 ft | 416 kts | 327° |
| 2026-04-20 12:43 | 39.30576 | 23.33060 | 37992 ft | 416 kts | 327° |
| 2026-04-20 12:43 | 39.35547 | 23.29211 | 37992 ft | 416 kts | 327° |
| 2026-04-20 12:44 | 39.40517 | 23.25355 | 38008 ft | 417 kts | 327° |
| 2026-04-20 12:44 | 39.45491 | 23.21482 | 38007 ft | 418 kts | 327° |
| 2026-04-20 12:45 | 39.50481 | 23.17592 | 38006 ft | 418 kts | 327° |
| 2026-04-20 12:45 | 39.55438 | 23.13731 | 38008 ft | 418 kts | 327° |
| 2026-04-20 12:46 | 39.60432 | 23.09843 | 38009 ft | 418 kts | 327° |
| 2026-04-20 12:46 | 39.65421 | 23.05940 | 38023 ft | 418 kts | 327° |
| 2026-04-20 12:47 | 39.70402 | 23.02026 | 38020 ft | 418 kts | 327° |
| 2026-04-20 12:47 | 39.75372 | 22.98118 | 38017 ft | 417 kts | 327° |
| 2026-04-20 12:48 | 39.80342 | 22.94213 | 38011 ft | 417 kts | 327° |
| 2026-04-20 12:48 | 39.84468 | 22.90962 | 38010 ft | 417 kts | 327° |
| 2026-04-20 12:49 | 39.89427 | 22.87047 | 38026 ft | 417 kts | 327° |
| 2026-04-20 12:49 | 39.94398 | 22.83118 | 38014 ft | 417 kts | 327° |
| 2026-04-20 12:50 | 39.99330 | 22.79209 | 38007 ft | 417 kts | 327° |
| 2026-04-20 12:50 | 40.04289 | 22.75269 | 38000 ft | 416 kts | 327° |
| 2026-04-20 12:51 | 40.09233 | 22.71343 | 38001 ft | 416 kts | 327° |
| 2026-04-20 12:51 | 40.14149 | 22.67431 | 38008 ft | 415 kts | 327° |
| 2026-04-20 12:52 | 40.19083 | 22.63487 | 38003 ft | 415 kts | 327° |
| 2026-04-20 12:52 | 40.24017 | 22.59547 | 37998 ft | 415 kts | 327° |
| 2026-04-20 12:53 | 40.28953 | 22.55603 | 37991 ft | 416 kts | 327° |
| 2026-04-20 12:53 | 40.33885 | 22.51645 | 37991 ft | 416 kts | 327° |
| 2026-04-20 12:54 | 40.38828 | 22.47671 | 37999 ft | 416 kts | 327° |
| 2026-04-20 12:54 | 40.43771 | 22.43701 | 37990 ft | 416 kts | 327° |
| 2026-04-20 12:55 | 40.48702 | 22.39735 | 37984 ft | 416 kts | 327° |
| 2026-04-20 12:55 | 40.53628 | 22.35760 | 37984 ft | 415 kts | 327° |
| 2026-04-20 12:56 | 40.58508 | 22.31816 | 37993 ft | 413 kts | 327° |
| 2026-04-20 12:56 | 40.63402 | 22.27851 | 37992 ft | 412 kts | 326° |
| 2026-04-20 12:57 | 40.68282 | 22.23891 | 37691 ft | 413 kts | 327° |
| 2026-04-20 12:57 | 40.70760 | 22.21877 | 36649 ft | 423 kts | 327° |
| 2026-04-20 12:57 | 40.73278 | 22.19824 | 35818 ft | 427 kts | 327° |
| 2026-04-20 12:57 | 40.75810 | 22.17760 | 35133 ft | 428 kts | 327° |
| 2026-04-20 12:58 | 40.78346 | 22.15695 | 34485 ft | 427 kts | 327° |
| 2026-04-20 12:58 | 40.80875 | 22.13635 | 33823 ft | 427 kts | 327° |
| 2026-04-20 12:58 | 40.83401 | 22.11575 | 33008 ft | 426 kts | 327° |
| 2026-04-20 12:58 | 40.85929 | 22.09513 | 32144 ft | 427 kts | 327° |
| 2026-04-20 12:59 | 40.88462 | 22.07446 | 31266 ft | 429 kts | 327° |
| 2026-04-20 12:59 | 40.91008 | 22.05364 | 30335 ft | 432 kts | 327° |
| 2026-04-20 12:59 | 40.93570 | 22.03264 | 29306 ft | 434 kts | 327° |
| 2026-04-20 12:59 | 40.96101 | 22.01189 | 28412 ft | 433 kts | 327° |
| 2026-04-20 13:00 | 40.98654 | 21.99091 | 27547 ft | 431 kts | 327° |
| 2026-04-20 13:00 | 41.01186 | 21.97006 | 26753 ft | 427 kts | 327° |
| 2026-04-20 13:00 | 41.03670 | 21.94959 | 26193 ft | 414 kts | 327° |
| 2026-04-20 13:00 | 41.06049 | 21.92940 | 25442 ft | 400 kts | 322° |
| 2026-04-20 13:01 | 41.08132 | 21.90559 | 24711 ft | 393 kts | 313° |
| 2026-04-20 13:01 | 41.09858 | 21.87788 | 24012 ft | 388 kts | 306° |
| 2026-04-20 13:01 | 41.11472 | 21.84899 | 22927 ft | 395 kts | 306° |
| 2026-04-20 13:01 | 41.13121 | 21.81950 | 21900 ft | 398 kts | 306° |
| 2026-04-20 13:02 | 41.14767 | 21.79012 | 21075 ft | 397 kts | 306° |
| 2026-04-20 13:02 | 41.16412 | 21.76074 | 20330 ft | 393 kts | 306° |
| 2026-04-20 13:02 | 41.18039 | 21.73165 | 19639 ft | 390 kts | 306° |
| 2026-04-20 13:02 | 41.19651 | 21.70280 | 18965 ft | 388 kts | 306° |
| 2026-04-20 13:03 | 41.21254 | 21.67407 | 18321 ft | 385 kts | 306° |
| 2026-04-20 13:03 | 41.22826 | 21.64592 | 17564 ft | 383 kts | 306° |
| 2026-04-20 13:03 | 41.24407 | 21.61756 | 16952 ft | 379 kts | 306° |
| 2026-04-20 13:03 | 41.25967 | 21.58953 | 16335 ft | 375 kts | 306° |
| 2026-04-20 13:04 | 41.27509 | 21.56181 | 15742 ft | 371 kts | 306° |
| 2026-04-20 13:04 | 41.29032 | 21.53440 | 15142 ft | 367 kts | 306° |
| 2026-04-20 13:04 | 41.30627 | 21.50820 | 14542 ft | 364 kts | 316° |
| 2026-04-20 13:04 | 41.32752 | 21.49031 | 13950 ft | 364 kts | 338° |
| 2026-04-20 13:05 | 41.35246 | 21.48487 | 13298 ft | 367 kts | 0° |
| 2026-04-20 13:05 | 41.37716 | 21.49314 | 12678 ft | 371 kts | 23° |
| 2026-04-20 13:05 | 41.39847 | 21.51262 | 12036 ft | 372 kts | 36° |
| 2026-04-20 13:05 | 41.41861 | 21.53407 | 11406 ft | 370 kts | 36° |
| 2026-04-20 13:06 | 41.43849 | 21.55557 | 10822 ft | 366 kts | 36° |
| 2026-04-20 13:06 | 41.45799 | 21.57673 | 10560 ft | 353 kts | 36° |
| 2026-04-20 13:06 | 41.47660 | 21.59690 | 10432 ft | 338 kts | 36° |
| 2026-04-20 13:06 | 41.49454 | 21.61631 | 10313 ft | 325 kts | 36° |
| 2026-04-20 13:07 | 41.51191 | 21.63499 | 10200 ft | 315 kts | 36° |
| 2026-04-20 13:07 | 41.52867 | 21.65298 | 10073 ft | 304 kts | 36° |
| 2026-04-20 13:07 | 41.54495 | 21.67043 | 9861 ft | 298 kts | 36° |
| 2026-04-20 13:07 | 41.56090 | 21.68750 | 9508 ft | 298 kts | 36° |
| 2026-04-20 13:08 | 41.57703 | 21.70477 | 9131 ft | 297 kts | 36° |
| 2026-04-20 13:08 | 41.59340 | 21.72152 | 8800 ft | 294 kts | 28° |
| 2026-04-20 13:08 | 41.61169 | 21.73190 | 8671 ft | 280 kts | 11° |
| 2026-04-20 13:08 | 41.63056 | 21.73448 | 8426 ft | 270 kts | 354° |
| 2026-04-20 13:09 | 41.64952 | 21.72973 | 7609 ft | 285 kts | 343° |
| 2026-04-20 13:09 | 41.66876 | 21.72295 | 6963 ft | 282 kts | 342° |
| 2026-04-20 13:09 | 41.68739 | 21.71647 | 6548 ft | 270 kts | 342° |
| 2026-04-20 13:09 | 41.70493 | 21.71043 | 6317 ft | 254 kts | 342° |
| 2026-04-20 13:10 | 41.72171 | 21.70464 | 5922 ft | 246 kts | 342° |
| 2026-04-20 13:10 | 41.73819 | 21.69893 | 5399 ft | 244 kts | 344° |
| 2026-04-20 13:10 | 41.75463 | 21.69324 | 4868 ft | 244 kts | 345° |
| 2026-04-20 13:10 | 41.77092 | 21.68761 | 4512 ft | 235 kts | 345° |
| 2026-04-20 13:11 | 41.78617 | 21.68233 | 4351 ft | 219 kts | 346° |
| 2026-04-20 13:11 | 41.80063 | 21.67732 | 4081 ft | 211 kts | 346° |
| 2026-04-20 13:11 | 41.81457 | 21.67250 | 3782 ft | 204 kts | 346° |
| 2026-04-20 13:11 | 41.82804 | 21.66783 | 3504 ft | 194 kts | 346° |
| 2026-04-20 13:12 | 41.84067 | 21.66345 | 3245 ft | 183 kts | 346° |
| 2026-04-20 13:12 | 41.85284 | 21.65923 | 2960 ft | 178 kts | 346° |
| 2026-04-20 13:12 | 41.86431 | 21.65525 | 2715 ft | 164 kts | 346° |
| 2026-04-20 13:12 | 41.87507 | 21.65152 | 2471 ft | 156 kts | 346° |
| 2026-04-20 13:13 | 41.88550 | 21.64790 | 2246 ft | 153 kts | 346° |
| 2026-04-20 13:13 | 41.89580 | 21.64432 | 2034 ft | 152 kts | 346° |
| 2026-04-20 13:13 | 41.90595 | 21.64080 | 1810 ft | 149 kts | 346° |
| 2026-04-20 13:13 | 41.91596 | 21.63728 | 1550 ft | 149 kts | 345° |
| 2026-04-20 13:14 | 41.92581 | 21.63361 | 1315 ft | 142 kts | 343° |
| 2026-04-20 13:14 | 41.93561 | 21.63018 | 1192 ft | 146 kts | 346° |
| 2026-04-20 13:14 | 41.94550 | 21.62701 | 898 ft | 142 kts | 345° |
| 2026-04-20 13:14 | 41.95482 | 21.62384 | 782 ft | 124 kts | 343° |
| 2026-04-20 13:15 | 41.96021 | 21.62190 | 788 ft | 37 kts | 346° |
| 2026-04-20 13:15 | 41.96221 | 21.62121 | 789 ft | 34 kts | 345° |
| 2026-04-20 13:15 | 41.96421 | 21.62055 | 790 ft | 22 kts | 349° |
| 2026-04-20 13:15 | 41.96506 | 21.62128 | 792 ft | 15 kts | 72° |
| 2026-04-20 13:16 | 41.96518 | 21.62257 | 793 ft | 14 kts | 112° |
| 2026-04-20 13:16 | 41.96433 | 21.62317 | 793 ft | 15 kts | 166° |
| 2026-04-20 13:16 | 41.96320 | 21.62355 | 792 ft | 18 kts | 166° |
| 2026-04-20 13:16 | 41.96196 | 21.62398 | 792 ft | 17 kts | 165° |
| 2026-04-20 13:17 | 41.96127 | 21.62457 | 793 ft | 10 kts | 95° |
| 2026-04-20 13:17 | 41.96084 | 21.62517 | 793 ft | 11 kts | 164° |
| 2026-04-20 13:17 | 41.96034 | 21.62542 | 793 ft | 6 kts | 139° |
| 2026-04-20 13:17 | 41.96030 | 21.62593 | 793 ft | 4 kts | 79° |
| 2026-04-20 13:18 | 41.96031 | 21.62598 | 793 ft | 0 kts | 78° |